Main page
METAR-TAF:

METAR-TAF

Airports :

Le Touquet – Côte d'Opale Airport

Le Touquet, France

latitude: 50-30-53N, longitude: 001-37-39E, elevation: 6 m

Current weather observation

The report was made 23 minutes ago, at 05:30 UTC
Wind 12 kt from the Northwest, varying between West and North/Northwest
Temperature 7°C
Humidity 76%
Pressure 1019 hPa
Visibility 10 km or more
Broken clouds at a height of 4600 ft
Broken clouds at a height of 5600 ft
Overcast at a height of 7400 ft

METAR: LFAT 170530Z AUTO 31012KT 270V340 9999 BKN046 BKN056 OVC074 07/03 Q1019 NOSIG

Time: 06:53 (05:53 UTC)

Forecast

The report was made 53 minutes ago, at 05:00 UTC
Forecast valid from 17 at 06 UTC to 17 at 15 UTC
Wind 12 kt from the Northwest
Visibility 10 km or more
Broken clouds at a height of 2000 ft

TAF: LFAT 170500Z 1706/1715 32012KT 9999 BKN020

Weather observations and forecasts of more than 4000 airports (METAR and TAF reports).

The available stations are represented by yellow and red dots on the map.

Hover mouse over dot to see the name of the station.

Then click to see weather observations and forecasts.

To change the map : click on the green buttons with a black cross to zoom in, on the green button with a dash to zoom out, or on the green arrows for adjacent maps.


METAR-TAF: